createdAt,value
2022-11-17T00:00:44.059Z,1.10
2022-11-17T00:03:15.379Z,1.10
2022-11-17T00:05:44.962Z,1.40
2022-11-17T00:08:12.983Z,1.23
2022-11-17T00:10:40.821Z,0.90
2022-11-17T00:13:28.560Z,1.00
2022-11-17T00:15:56.537Z,0.87
2022-11-17T00:18:42.101Z,1.50
2022-11-17T00:21:21.458Z,1.20
2022-11-17T00:23:54.646Z,1.20
2022-11-17T00:26:24.435Z,1.23
2022-11-17T00:28:55.568Z,1.10
2022-11-17T00:31:42.333Z,0.80
2022-11-17T00:34:14.033Z,0.97
2022-11-17T00:36:45.913Z,1.07
2022-11-17T00:39:14.908Z,0.90
2022-11-17T00:41:43.275Z,1.40
2022-11-17T00:44:11.402Z,1.00
2022-11-17T00:46:40.372Z,0.93
2022-11-17T00:49:09.366Z,1.20
2022-11-17T00:51:37.919Z,1.00
2022-11-17T00:54:08.914Z,1.30
2022-11-17T00:56:36.778Z,1.20
2022-11-17T00:59:04.721Z,1.00
2022-11-17T01:01:33.226Z,1.90
2022-11-17T01:04:04.028Z,1.00
2022-11-17T01:06:34.435Z,1.13
2022-11-17T01:09:02.924Z,1.10
2022-11-17T01:11:32.352Z,1.17
2022-11-17T01:14:01.526Z,1.10
2022-11-17T01:16:30.229Z,1.30
2022-11-17T01:19:00.844Z,1.00
2022-11-17T01:21:30.152Z,1.00
2022-11-17T01:23:59.993Z,1.23
2022-11-17T01:26:29.736Z,0.90
2022-11-17T01:29:00.111Z,1.30
2022-11-17T01:31:30.337Z,0.90
2022-11-17T01:33:58.640Z,0.80
2022-11-17T01:36:28.896Z,1.37
2022-11-17T01:38:56.879Z,1.10
2022-11-17T01:41:27.129Z,1.27
2022-11-17T01:43:56.660Z,1.27
2022-11-17T01:46:32.322Z,0.90
2022-11-17T01:49:04.000Z,0.93
2022-11-17T01:51:34.817Z,0.90
2022-11-17T01:54:03.390Z,1.40
2022-11-17T01:56:34.714Z,1.40
2022-11-17T01:59:07.501Z,1.53
2022-11-17T02:01:55.765Z,0.90
2022-11-17T02:04:26.548Z,1.20
2022-11-17T02:07:01.133Z,1.50
2022-11-17T02:09:29.230Z,1.30
2022-11-17T02:11:59.715Z,1.07
2022-11-17T02:14:28.012Z,1.43
2022-11-17T02:17:13.728Z,0.90
2022-11-17T02:19:44.185Z,0.83
2022-11-17T02:22:34.541Z,0.83
2022-11-17T02:25:29.319Z,1.27
2022-11-17T02:28:07.563Z,0.90
2022-11-17T02:30:42.625Z,1.57
2022-11-17T02:33:18.166Z,0.90
2022-11-17T02:35:52.230Z,0.80
2022-11-17T02:38:29.437Z,1.20
2022-11-17T02:41:09.870Z,1.50
2022-11-17T02:44:02.555Z,0.80
2022-11-17T02:46:37.498Z,1.47
2022-11-17T02:49:09.458Z,1.20
2022-11-17T02:51:39.214Z,0.73
2022-11-17T02:54:08.507Z,1.33
2022-11-17T02:56:41.925Z,0.80
2022-11-17T02:59:13.355Z,0.70
2022-11-17T03:01:56.721Z,0.80
2022-11-17T03:04:32.363Z,0.83
2022-11-17T03:07:11.796Z,0.90
2022-11-17T03:09:50.281Z,0.97
2022-11-17T03:12:24.416Z,0.90
2022-11-17T03:15:03.154Z,0.83
2022-11-17T03:17:37.396Z,0.80
2022-11-17T03:20:13.510Z,0.80
2022-11-17T03:22:47.583Z,1.00
2022-11-17T03:25:21.221Z,1.07
2022-11-17T03:27:53.756Z,1.00
2022-11-17T03:30:25.049Z,0.87
2022-11-17T03:32:56.750Z,0.80
2022-11-17T03:35:28.841Z,0.90
2022-11-17T03:38:04.213Z,0.90
2022-11-17T03:40:33.943Z,0.80
2022-11-17T03:43:05.679Z,0.83
2022-11-17T03:45:36.745Z,0.80
2022-11-17T03:48:14.552Z,1.03
2022-11-17T03:50:48.261Z,0.77
2022-11-17T03:53:16.150Z,0.90
2022-11-17T03:55:51.402Z,0.87
2022-11-17T03:58:21.736Z,1.17
2022-11-17T04:00:54.346Z,0.80
2022-11-17T04:03:23.255Z,0.83
2022-11-17T04:05:51.406Z,1.00
2022-11-17T04:08:19.725Z,0.70
2022-11-17T04:11:05.258Z,0.77
2022-11-17T04:13:49.830Z,0.90
2022-11-17T04:16:19.044Z,0.60
2022-11-17T04:18:46.873Z,0.73
2022-11-17T04:21:14.703Z,0.90
2022-11-17T04:23:42.559Z,0.80
2022-11-17T04:26:28.960Z,0.80
2022-11-17T04:28:56.795Z,0.93
2022-11-17T04:31:27.919Z,1.03
2022-11-17T04:33:56.947Z,0.77
2022-11-17T04:36:26.336Z,0.77
2022-11-17T04:38:56.313Z,0.60
2022-11-17T04:41:43.900Z,0.70
2022-11-17T04:44:13.212Z,1.00
2022-11-17T04:46:44.278Z,0.93
2022-11-17T04:49:12.415Z,0.80
2022-11-17T04:51:40.835Z,0.77
2022-11-17T04:54:10.811Z,0.80
2022-11-17T04:56:39.664Z,0.90
2022-11-17T04:59:08.158Z,0.77
2022-11-17T05:01:36.674Z,0.80
2022-11-17T05:04:08.198Z,0.90
2022-11-17T05:06:38.098Z,0.90
2022-11-17T05:09:08.073Z,0.67
2022-11-17T05:11:53.391Z,0.70
2022-11-17T05:14:22.704Z,1.10
2022-11-17T05:17:11.192Z,0.63
2022-11-17T05:19:44.093Z,0.60
2022-11-17T05:22:31.181Z,0.60
2022-11-17T05:24:59.059Z,0.60
2022-11-17T05:27:27.280Z,0.80
2022-11-17T05:29:55.197Z,1.10
2022-11-17T05:32:23.143Z,0.90
2022-11-17T05:34:52.353Z,1.00
2022-11-17T05:37:20.195Z,0.50
2022-11-17T05:39:48.049Z,0.70
2022-11-17T05:42:16.281Z,1.10
2022-11-17T05:44:44.402Z,0.70
2022-11-17T05:47:12.226Z,0.60
2022-11-17T05:49:40.088Z,1.00
2022-11-17T05:52:09.415Z,0.80
2022-11-17T05:54:37.273Z,1.00
2022-11-17T05:57:09.351Z,1.00
2022-11-17T05:59:42.409Z,0.70
2022-11-17T06:02:13.732Z,0.80
2022-11-17T06:04:41.639Z,1.00
2022-11-17T06:07:11.822Z,1.17
2022-11-17T06:09:42.463Z,1.03
2022-11-17T06:12:11.988Z,1.00
2022-11-17T06:14:40.016Z,1.13
2022-11-17T06:17:13.446Z,0.80
2022-11-17T06:19:47.346Z,0.97
2022-11-17T06:22:16.625Z,1.10
2022-11-17T06:24:45.998Z,1.27
2022-11-17T06:27:15.726Z,0.83
2022-11-17T06:29:45.096Z,0.80
2022-11-17T06:32:14.091Z,0.73
2022-11-17T06:34:43.175Z,1.27
2022-11-17T06:37:11.613Z,0.63
2022-11-17T06:39:41.142Z,0.90
2022-11-17T06:42:09.060Z,1.03
2022-11-17T06:44:36.860Z,0.97
2022-11-17T06:47:04.715Z,1.13
2022-11-17T06:49:32.720Z,0.90
2022-11-17T06:52:00.592Z,1.00
2022-11-17T06:54:28.708Z,0.97
2022-11-17T06:56:57.967Z,1.10
2022-11-17T06:59:25.833Z,1.50
2022-11-17T07:01:53.647Z,0.80
2022-11-17T07:04:21.502Z,1.10
2022-11-17T07:06:49.808Z,0.80
2022-11-17T07:09:17.651Z,1.10
2022-11-17T07:11:45.508Z,1.00
2022-11-17T07:14:14.674Z,1.10
2022-11-17T07:16:43.677Z,0.93
2022-11-17T07:19:13.024Z,0.93
2022-11-17T07:21:40.946Z,1.10
2022-11-17T07:24:09.191Z,0.80
2022-11-17T07:26:37.118Z,1.10
2022-11-17T07:29:05.066Z,1.23
2022-11-17T07:31:35.809Z,1.20
2022-11-17T07:34:04.417Z,0.87
2022-11-17T07:36:32.418Z,0.93
2022-11-17T07:39:03.273Z,0.83
2022-11-17T07:41:31.946Z,0.60
2022-11-17T07:44:00.066Z,0.70
2022-11-17T07:46:27.939Z,0.90
2022-11-17T07:48:57.450Z,0.90
2022-11-17T07:51:26.220Z,0.63
2022-11-17T07:53:54.011Z,0.80
2022-11-17T07:56:21.859Z,0.73
2022-11-17T07:58:49.680Z,0.80
2022-11-17T08:01:17.599Z,0.60
2022-11-17T08:03:45.816Z,0.73
2022-11-17T08:06:15.119Z,0.87
2022-11-17T08:08:43.054Z,0.90
2022-11-17T08:11:13.073Z,0.70
2022-11-17T08:13:42.407Z,0.67
2022-11-17T08:16:12.194Z,0.70
2022-11-17T08:18:40.860Z,0.60
2022-11-17T08:21:10.697Z,0.73
2022-11-17T08:23:40.017Z,0.83
2022-11-17T08:26:09.611Z,0.80
2022-11-17T08:28:38.690Z,0.70
2022-11-17T08:31:08.711Z,0.60
2022-11-17T08:33:37.421Z,0.50
2022-11-17T08:36:09.548Z,0.90
2022-11-17T08:38:39.631Z,0.87
2022-11-17T08:41:09.270Z,0.53
2022-11-17T08:43:37.478Z,0.70
2022-11-17T08:46:07.921Z,0.70
2022-11-17T08:48:36.137Z,0.50
2022-11-17T08:51:11.402Z,0.60
2022-11-17T08:53:40.566Z,0.97
2022-11-17T08:56:09.592Z,0.70
2022-11-17T08:58:42.342Z,0.80
2022-11-17T09:01:15.632Z,0.50
2022-11-17T09:03:45.043Z,0.60
2022-11-17T09:06:14.233Z,0.80
2022-11-17T09:08:50.971Z,0.70
2022-11-17T09:11:18.844Z,0.50
2022-11-17T09:13:47.069Z,1.00
2022-11-17T09:16:16.415Z,0.60
2022-11-17T09:18:45.266Z,0.60
2022-11-17T09:21:16.977Z,0.77
2022-11-17T09:23:46.215Z,0.77
2022-11-17T09:26:15.738Z,1.10
2022-11-17T09:28:44.042Z,0.50
2022-11-17T09:31:14.171Z,1.13
2022-11-17T09:33:42.325Z,0.93
2022-11-17T09:36:11.391Z,0.70
2022-11-17T09:38:40.230Z,0.67
2022-11-17T09:41:23.026Z,0.90
2022-11-17T09:43:58.651Z,0.80
2022-11-17T09:46:33.976Z,0.90
2022-11-17T09:49:11.827Z,0.67
2022-11-17T09:51:43.432Z,0.73
2022-11-17T09:54:19.558Z,0.67
2022-11-17T09:56:48.958Z,0.77
2022-11-17T09:59:20.960Z,0.53
2022-11-17T10:01:48.882Z,0.70
2022-11-17T10:04:18.485Z,0.67
2022-11-17T10:06:49.479Z,0.50
2022-11-17T10:09:25.575Z,0.60
2022-11-17T10:12:08.733Z,0.37
2022-11-17T10:14:42.059Z,0.40
2022-11-17T10:17:10.729Z,0.43
2022-11-17T10:19:39.585Z,0.80
2022-11-17T10:22:30.446Z,0.30
2022-11-17T10:24:58.696Z,0.50
2022-11-17T10:27:29.797Z,0.40
2022-11-17T10:29:59.598Z,0.50
2022-11-17T10:32:28.338Z,0.50
2022-11-17T10:34:56.335Z,0.60
2022-11-17T10:37:28.139Z,0.40
2022-11-17T10:40:25.076Z,0.60
2022-11-17T10:43:23.532Z,0.50
2022-11-17T10:45:54.065Z,0.60
2022-11-17T10:48:27.461Z,0.60
2022-11-17T10:50:57.513Z,0.60
2022-11-17T10:53:29.961Z,0.60
2022-11-17T10:56:02.608Z,0.50
2022-11-17T10:59:03.160Z,0.50
2022-11-17T11:01:33.166Z,0.70
2022-11-17T11:04:01.064Z,0.50
2022-11-17T11:06:30.431Z,0.37
2022-11-17T11:09:01.393Z,0.70
2022-11-17T11:11:47.440Z,0.60
2022-11-17T11:14:23.160Z,0.40
2022-11-17T11:16:51.633Z,0.40
2022-11-17T11:19:20.968Z,0.40
2022-11-17T11:22:03.878Z,0.40
2022-11-17T11:24:40.121Z,0.50
2022-11-17T11:27:24.484Z,0.60
2022-11-17T11:30:03.338Z,0.40
2022-11-17T11:32:41.833Z,0.50
2022-11-17T11:35:37.510Z,1.07
2022-11-17T11:38:18.691Z,0.40
2022-11-17T11:40:59.782Z,0.33
2022-11-17T11:43:40.672Z,0.40
2022-11-17T11:46:18.262Z,0.50
2022-11-17T11:48:49.959Z,0.30
2022-11-17T11:51:24.546Z,0.30
2022-11-17T11:53:58.609Z,0.40
2022-11-17T11:56:32.995Z,0.60
2022-11-17T11:59:04.846Z,0.50
2022-11-17T12:01:48.294Z,0.40
2022-11-17T12:04:30.655Z,0.60
2022-11-17T12:07:11.061Z,0.70
2022-11-17T12:09:48.807Z,0.53
2022-11-17T12:12:21.489Z,0.50
2022-11-17T12:15:10.230Z,0.40
2022-11-17T12:18:05.313Z,0.40
2022-11-17T12:21:03.012Z,0.63
2022-11-17T12:24:06.892Z,0.50
2022-11-17T12:26:36.317Z,0.70
2022-11-17T12:29:28.917Z,0.63
2022-11-17T12:31:59.788Z,0.97
2022-11-17T12:34:35.717Z,1.20
2022-11-17T12:37:36.215Z,0.50
2022-11-17T12:40:07.799Z,0.50
2022-11-17T12:42:37.176Z,0.60
2022-11-17T12:45:14.925Z,0.53
2022-11-17T12:48:11.305Z,0.50
2022-11-17T12:51:01.904Z,0.57
2022-11-17T12:54:02.091Z,0.40
2022-11-17T12:56:51.206Z,0.60
2022-11-17T12:59:58.444Z,0.60
2022-11-17T13:02:53.105Z,0.83
2022-11-17T13:05:25.418Z,0.30
2022-11-17T13:08:27.046Z,0.50
2022-11-17T13:11:04.538Z,0.50
2022-11-17T13:13:34.015Z,0.40
2022-11-17T13:16:05.760Z,0.50
2022-11-17T13:18:36.291Z,0.40
2022-11-17T13:21:05.345Z,0.63
2022-11-17T13:23:34.492Z,0.60
2022-11-17T13:26:21.170Z,0.53
2022-11-17T13:29:02.928Z,0.70
2022-11-17T13:31:31.085Z,0.90
2022-11-17T13:34:08.651Z,0.90
2022-11-17T13:36:36.864Z,1.40
2022-11-17T13:39:05.204Z,0.77
2022-11-17T13:41:39.631Z,0.63
2022-11-17T13:44:14.457Z,0.60
2022-11-17T13:46:42.566Z,1.00
2022-11-17T13:49:33.428Z,0.60
2022-11-17T13:52:01.814Z,0.83
2022-11-17T13:54:29.760Z,0.77
2022-11-17T13:57:04.737Z,0.83
2022-11-17T13:59:35.204Z,0.80
2022-11-17T14:02:24.926Z,0.80
2022-11-17T14:05:07.614Z,0.60
2022-11-17T14:07:36.770Z,0.70
2022-11-17T14:10:14.613Z,0.90
2022-11-17T14:12:43.910Z,0.60
2022-11-17T14:15:16.105Z,0.90
2022-11-17T14:17:50.432Z,0.80
2022-11-17T14:20:20.386Z,0.90
2022-11-17T14:23:02.252Z,0.60
2022-11-17T14:25:30.129Z,0.80
2022-11-17T14:27:59.330Z,0.80
2022-11-17T14:30:27.339Z,1.03
2022-11-17T14:32:58.293Z,0.80
2022-11-17T14:35:31.527Z,0.83
2022-11-17T14:38:01.208Z,1.20
2022-11-17T14:40:29.053Z,0.60
2022-11-17T14:42:56.927Z,0.60
2022-11-17T14:45:26.137Z,1.03
2022-11-17T14:47:54.038Z,0.90
2022-11-17T14:50:22.316Z,0.80
2022-11-17T14:52:50.287Z,0.70
2022-11-17T14:55:19.186Z,0.80
2022-11-17T14:57:48.811Z,0.87
2022-11-17T15:00:20.533Z,0.80
2022-11-17T15:02:51.052Z,1.00
2022-11-17T15:05:18.932Z,0.80
2022-11-17T15:07:48.926Z,0.80
2022-11-17T15:10:17.296Z,0.90
2022-11-17T15:12:45.177Z,1.17
2022-11-17T15:15:13.053Z,1.00
2022-11-17T15:17:40.868Z,1.03
2022-11-17T15:20:11.233Z,1.33
2022-11-17T15:22:39.119Z,1.00
2022-11-17T15:25:08.265Z,0.73
2022-11-17T15:27:36.397Z,1.50
2022-11-17T15:30:04.765Z,1.07
2022-11-17T15:32:32.572Z,1.17
2022-11-17T15:35:00.404Z,0.93
2022-11-17T15:37:29.659Z,1.00
2022-11-17T15:39:57.509Z,1.03
2022-11-17T15:42:25.346Z,0.80
2022-11-17T15:44:53.177Z,1.07
2022-11-17T15:47:21.026Z,0.90
2022-11-17T15:49:48.862Z,1.40
2022-11-17T15:52:19.577Z,1.00
2022-11-17T15:54:59.836Z,1.00
2022-11-17T15:57:27.770Z,0.87
2022-11-17T15:59:55.582Z,0.93
2022-11-17T16:02:23.462Z,1.07
2022-11-17T16:04:51.298Z,0.93
2022-11-17T16:07:19.307Z,1.10
2022-11-17T16:09:49.208Z,1.00
2022-11-17T16:12:19.728Z,0.83
2022-11-17T16:14:47.557Z,1.13
2022-11-17T16:17:15.329Z,1.13
2022-11-17T16:19:43.556Z,1.20
2022-11-17T16:22:11.363Z,1.50
2022-11-17T16:24:39.417Z,1.80
2022-11-17T16:27:07.295Z,1.13
2022-11-17T16:29:36.524Z,1.50
2022-11-17T16:32:04.707Z,1.10
2022-11-17T16:34:32.534Z,1.13
2022-11-17T16:37:00.387Z,1.30
2022-11-17T16:39:28.286Z,1.50
2022-11-17T16:41:56.182Z,1.23
2022-11-17T16:44:24.043Z,1.17
2022-11-17T16:46:53.258Z,1.23
2022-11-17T16:49:21.345Z,1.43
2022-11-17T16:51:50.742Z,1.27
2022-11-17T16:54:19.100Z,1.30
2022-11-17T16:56:47.306Z,1.00
2022-11-17T16:59:15.938Z,1.50
2022-11-17T17:01:44.254Z,1.20
2022-11-17T17:04:13.410Z,1.20
2022-11-17T17:06:42.700Z,1.17
2022-11-17T17:09:12.566Z,1.10
2022-11-17T17:11:40.804Z,1.00
2022-11-17T17:14:10.596Z,1.33
2022-11-17T17:16:39.178Z,1.00
2022-11-17T17:19:08.887Z,1.20
2022-11-17T17:21:38.956Z,1.53
2022-11-17T17:24:07.443Z,1.13
2022-11-17T17:26:37.012Z,2.03
2022-11-17T17:29:06.462Z,1.37
2022-11-17T17:31:36.909Z,1.70
2022-11-17T17:34:06.134Z,1.00
2022-11-17T17:36:34.902Z,1.20
2022-11-17T17:39:04.337Z,1.20
2022-11-17T17:41:34.722Z,1.40
2022-11-17T17:44:04.025Z,1.10
2022-11-17T17:46:34.510Z,2.00
2022-11-17T17:49:02.672Z,1.63
2022-11-17T17:51:31.541Z,1.30
2022-11-17T17:54:01.788Z,1.40
2022-11-17T17:56:31.378Z,1.30
2022-11-17T17:58:59.836Z,1.13
2022-11-17T18:01:28.901Z,1.30
2022-11-17T18:04:01.265Z,1.73
2022-11-17T18:06:29.135Z,1.40
2022-11-17T18:08:57.868Z,1.27
2022-11-17T18:11:26.127Z,1.50
2022-11-17T18:13:55.513Z,1.73
2022-11-17T18:16:25.159Z,1.40
2022-11-17T18:18:57.492Z,1.40
2022-11-17T18:21:25.529Z,1.33
2022-11-17T18:23:53.764Z,1.40
2022-11-17T18:26:23.938Z,1.57
2022-11-17T18:28:53.247Z,1.47
2022-11-17T18:31:24.008Z,1.40
2022-11-17T18:33:52.655Z,1.50
2022-11-17T18:36:21.083Z,1.43
2022-11-17T18:38:49.334Z,1.30
2022-11-17T18:41:18.355Z,1.23
2022-11-17T18:43:46.687Z,1.53
2022-11-17T18:46:16.375Z,1.93
2022-11-17T18:48:47.587Z,1.60
2022-11-17T18:51:20.287Z,1.73
2022-11-17T18:53:49.017Z,1.30
2022-11-17T18:56:20.129Z,1.67
2022-11-17T18:58:48.108Z,1.30
2022-11-17T19:01:18.336Z,1.60
2022-11-17T19:03:49.266Z,1.30
2022-11-17T19:06:18.530Z,1.70
2022-11-17T19:08:48.012Z,1.50
2022-11-17T19:11:17.230Z,2.13
2022-11-17T19:13:45.358Z,1.50
2022-11-17T19:16:14.976Z,1.30
2022-11-17T19:18:44.743Z,1.70
2022-11-17T19:21:16.015Z,1.50
2022-11-17T19:23:51.091Z,1.70
2022-11-17T19:26:21.446Z,1.60
2022-11-17T19:28:49.676Z,2.20
2022-11-17T19:31:19.598Z,1.77
2022-11-17T19:33:48.813Z,1.93
2022-11-17T19:36:19.848Z,2.50
2022-11-17T19:38:49.848Z,1.90
2022-11-17T19:41:19.930Z,1.87
2022-11-17T19:43:48.109Z,1.60
2022-11-17T19:46:17.756Z,1.83
2022-11-17T19:48:45.957Z,2.23
2022-11-17T19:51:18.418Z,2.53
2022-11-17T19:53:46.596Z,2.10
2022-11-17T19:56:14.909Z,1.83
2022-11-17T19:58:43.005Z,2.10
2022-11-17T20:01:12.825Z,2.23
2022-11-17T20:03:41.616Z,1.90
2022-11-17T20:06:10.555Z,2.33
2022-11-17T20:08:40.328Z,2.00
2022-11-17T20:11:10.526Z,2.20
2022-11-17T20:13:39.061Z,2.07
2022-11-17T20:16:11.995Z,1.70
2022-11-17T20:18:40.321Z,1.80
2022-11-17T20:21:09.150Z,3.53
2022-11-17T20:23:39.227Z,2.40
2022-11-17T20:26:08.974Z,2.00
2022-11-17T20:28:38.063Z,1.97
2022-11-17T20:31:09.765Z,2.30
2022-11-17T20:33:37.908Z,2.07
2022-11-17T20:36:06.972Z,2.37
2022-11-17T20:38:35.803Z,2.30
2022-11-17T20:41:06.081Z,2.27
2022-11-17T20:43:34.560Z,2.50
2022-11-17T20:46:03.469Z,2.00
2022-11-17T20:48:34.145Z,1.97
2022-11-17T20:51:03.565Z,2.60
2022-11-17T20:53:34.764Z,2.47
2022-11-17T20:56:05.934Z,1.80
2022-11-17T20:58:34.866Z,2.53
2022-11-17T21:01:09.319Z,2.87
2022-11-17T21:03:37.395Z,2.67
2022-11-17T21:06:06.280Z,2.67
2022-11-17T21:08:36.966Z,1.90
2022-11-17T21:11:08.257Z,1.50
2022-11-17T21:13:37.460Z,1.50
2022-11-17T21:16:07.574Z,1.60
2022-11-17T21:18:36.126Z,2.20
2022-11-17T21:21:09.053Z,2.47
2022-11-17T21:23:37.171Z,1.50
2022-11-17T21:26:10.498Z,2.13
2022-11-17T21:28:42.385Z,1.80
2022-11-17T21:31:12.882Z,1.53
2022-11-17T21:33:41.371Z,1.40
2022-11-17T21:36:11.777Z,2.00
2022-11-17T21:38:39.979Z,2.00
2022-11-17T21:41:13.110Z,2.40
2022-11-17T21:43:42.835Z,1.63
2022-11-17T21:46:14.309Z,1.77
2022-11-17T21:48:42.612Z,1.97
2022-11-17T21:51:16.299Z,1.73
2022-11-17T21:53:44.625Z,1.53
2022-11-17T21:56:14.177Z,1.57
2022-11-17T21:58:42.234Z,1.40
2022-11-17T22:01:12.108Z,1.97
2022-11-17T22:03:40.913Z,1.57
2022-11-17T22:06:13.330Z,1.60
2022-11-17T22:08:42.906Z,1.20
2022-11-17T22:11:13.756Z,1.10
2022-11-17T22:13:42.258Z,1.47
2022-11-17T22:16:14.426Z,1.57
2022-11-17T22:18:42.785Z,1.50
2022-11-17T22:21:10.633Z,1.70
2022-11-17T22:23:38.542Z,1.43
2022-11-17T22:26:09.874Z,1.37
2022-11-17T22:28:39.173Z,1.70
2022-11-17T22:31:09.467Z,1.50
2022-11-17T22:33:42.614Z,1.60
2022-11-17T22:36:11.674Z,1.30
2022-11-17T22:38:39.536Z,1.60
2022-11-17T22:41:15.277Z,1.50
2022-11-17T22:43:44.462Z,1.50
2022-11-17T22:46:12.752Z,1.83
2022-11-17T22:48:40.570Z,1.47
2022-11-17T22:51:09.128Z,1.50
2022-11-17T22:53:36.938Z,1.80
2022-11-17T22:56:07.053Z,1.43
2022-11-17T22:58:35.444Z,1.27
2022-11-17T23:01:08.482Z,1.47
2022-11-17T23:03:36.382Z,1.37
2022-11-17T23:06:05.446Z,1.40
2022-11-17T23:08:33.753Z,1.33
2022-11-17T23:11:29.600Z,1.23
2022-11-17T23:13:50.036Z,1.30
2022-11-17T23:16:19.336Z,1.60
2022-11-17T23:18:47.241Z,1.20
2022-11-17T23:21:15.187Z,1.57
2022-11-17T23:23:43.020Z,1.10
2022-11-17T23:26:12.940Z,1.50
2022-11-17T23:28:42.537Z,1.27
2022-11-17T23:31:13.905Z,1.20
2022-11-17T23:33:44.848Z,1.47
2022-11-17T23:36:15.850Z,1.37
2022-11-17T23:38:44.176Z,1.87
2022-11-17T23:41:13.901Z,1.53
2022-11-17T23:43:41.786Z,1.50
2022-11-17T23:46:13.051Z,1.47
2022-11-17T23:48:40.912Z,1.13
2022-11-17T23:51:12.012Z,1.53
2022-11-17T23:53:40.545Z,1.23
2022-11-17T23:56:09.268Z,1.40
2022-11-17T23:58:37.199Z,1.27
